Time;durP1;ratioP1;P1;durP2;ratioP2;P2;SDS_P1;SDS_P2;PMS_P1;PMS_P2;Temp;Humidity;BMP_temperature;BMP_pressure;BME280_temperature;BME280_humidity;BME280_pressure;Samples;Min_cycle;Max_cycle;Signal;HPM_P1;HPM_P2
2022/03/04 00:00:48;;;;;;;19.9;13.6;;;;;;;1.17;59.88477;935.847;;;;
2022/03/04 00:03:20;;;;;;;18.7;13.1;;;;;;;1.06;59.7793;935.8685;;;;
2022/03/04 00:05:51;;;;;;;17.1;11.7;;;;;;;0.98;59.62305;935.9244;;;;
2022/03/04 00:08:20;;;;;;;19.2;12.9;;;;;;;0.87;60.3877;935.8929;;;;
2022/03/04 00:10:48;;;;;;;16.2;11.9;;;;;;;0.76;61.20996;935.8845;;;;
2022/03/04 00:13:24;;;;;;;19.3;12.3;;;;;;;0.71;61.81738;935.9444;;;;
2022/03/04 00:15:57;;;;;;;18.9;13.1;;;;;;;0.64;62.21875;935.9772;;;;
2022/03/04 00:18:34;;;;;;;19;13.3;;;;;;;0.69;62.2041;935.8909;;;;
2022/03/04 00:21:11;;;;;;;20.4;14.2;;;;;;;0.53;63.09375;935.9579;;;;
2022/03/04 00:23:49;;;;;;;22.5;14;;;;;;;0.54;63.3877;935.9352;;;;
2022/03/04 00:26:23;;;;;;;22.1;14.2;;;;;;;0.49;64.37207;935.9417;;;;
2022/03/04 00:28:51;;;;;;;21.4;13.6;;;;;;;0.42;65.1416;935.9543;;;;
2022/03/04 00:31:29;;;;;;;17.7;12.8;;;;;;;0.56;64.68262;935.975;;;;
2022/03/04 00:34:11;;;;;;;20.3;13.8;;;;;;;0.52;64.94434;936.0086;;;;
2022/03/04 00:40:19;;;;;;;22.2;14.8;;;;;;;0.42;65.97754;936.002;;;;
2022/03/04 00:42:54;;;;;;;19.7;13.5;;;;;;;0.32;66.4082;936.0161;;;;
2022/03/04 00:45:25;;;;;;;20.1;13.4;;;;;;;0.18;66.79883;935.9722;;;;
2022/03/04 00:47:50;;;;;;;18.3;13.2;;;;;;;0.3;66.23633;936.0286;;;;
2022/03/04 00:50:30;;;;;;;21.4;13.1;;;;;;;0.38;65.84766;935.9765;;;;
2022/03/04 00:52:57;;;;;;;18.9;13.5;;;;;;;0.36;65.80176;936.0009;;;;
2022/03/04 00:55:21;;;;;;;18.1;12.8;;;;;;;0.39;65.64844;935.9087;;;;
2022/03/04 00:57:47;;;;;;;19;12.8;;;;;;;0.51;65.11035;935.9417;;;;
2022/03/04 01:00:12;;;;;;;19.8;12.7;;;;;;;0.55;64.72559;935.9137;;;;
2022/03/04 01:02:40;;;;;;;16.3;11.7;;;;;;;0.49;64.87402;935.8789;;;;
2022/03/04 01:05:04;;;;;;;16.3;12.1;;;;;;;0.5;64.875;935.8392;;;;
2022/03/04 01:07:31;;;;;;;18.7;12.9;;;;;;;0.55;64.50293;935.8533;;;;
2022/03/04 01:09:57;;;;;;;15.7;11.7;;;;;;;0.44;64.34277;935.8362;;;;
2022/03/04 01:12:25;;;;;;;15.3;11.8;;;;;;;0.41;64.32715;935.8342;;;;
2022/03/04 01:14:51;;;;;;;16;11.2;;;;;;;0.4;63.83301;935.7681;;;;
2022/03/04 01:17:20;;;;;;;16.6;12;;;;;;;0.41;64.41699;935.7762;;;;
2022/03/04 01:19:50;;;;;;;17.9;11.9;;;;;;;0.41;64.59473;935.6588;;;;
2022/03/04 01:22:15;;;;;;;16.2;12;;;;;;;0.36;64.96582;935.7713;;;;
2022/03/04 01:24:44;;;;;;;18.3;12.2;;;;;;;0.29;65.14453;935.741;;;;
2022/03/04 01:27:15;;;;;;;16.8;12.4;;;;;;;0.3;65.30176;935.7204;;;;
2022/03/04 01:29:44;;;;;;;16.4;11.7;;;;;;;0.26;65.50781;935.7756;;;;
2022/03/04 01:32:09;;;;;;;15.7;11.8;;;;;;;0.21;65.72266;935.7553;;;;
2022/03/04 01:34:36;;;;;;;13.9;11.3;;;;;;;0.23;65.66895;935.6631;;;;
2022/03/04 01:37:01;;;;;;;18.4;12.7;;;;;;;0.27;65.25293;935.6705;;;;
2022/03/04 01:39:28;;;;;;;16.8;12.4;;;;;;;0.31;65.34766;935.6994;;;;
2022/03/04 01:41:53;;;;;;;16;12;;;;;;;0.4;64.44629;935.729;;;;
2022/03/04 01:44:19;;;;;;;15.6;12;;;;;;;0.36;64.09473;935.6866;;;;
2022/03/04 01:46:44;;;;;;;17.6;11.9;;;;;;;0.26;64.53809;935.6362;;;;
2022/03/04 01:49:10;;;;;;;15.9;11.3;;;;;;;0.23;64.62207;935.66;;;;
2022/03/04 01:51:35;;;;;;;17.1;12.1;;;;;;;0.16;64.49902;935.6573;;;;
2022/03/04 01:54:01;;;;;;;18.7;11.9;;;;;;;0.08;64.23047;935.671;;;;
2022/03/04 01:56:26;;;;;;;14.7;11.7;;;;;;;0.12;64.05762;935.7128;;;;
2022/03/04 01:58:51;;;;;;;17;11.4;;;;;;;0.02;64.32129;935.6433;;;;
2022/03/04 02:01:18;;;;;;;14.9;11.5;;;;;;;-0.26;65.2373;935.697;;;;
2022/03/04 02:03:43;;;;;;;16.1;11.1;;;;;;;-0.23;65.64258;935.6857;;;;
2022/03/04 02:06:09;;;;;;;18.5;12.1;;;;;;;-0.13;65.62305;935.6575;;;;
2022/03/04 02:08:34;;;;;;;17;12.1;;;;;;;-0.18;65.77344;935.6541;;;;
2022/03/04 02:11:04;;;;;;;17;11.9;;;;;;;-0.08;65.9873;935.6675;;;;
2022/03/04 02:13:34;;;;;;;17.7;11.3;;;;;;;-0.14;66.21289;935.5595;;;;
2022/03/04 02:16:08;;;;;;;18.1;11.9;;;;;;;-0.12;66.34961;935.6188;;;;
2022/03/04 02:18:33;;;;;;;16.3;12.1;;;;;;;-0.08;66.23438;935.6349;;;;
2022/03/04 02:20:58;;;;;;;21;12.1;;;;;;;-0.12;66.45117;935.5673;;;;
2022/03/04 02:23:25;;;;;;;17.1;11.5;;;;;;;-0.3;67.0459;935.5801;;;;
2022/03/04 02:25:50;;;;;;;14.6;11.3;;;;;;;-0.25;66.92969;935.5541;;;;
2022/03/04 02:28:17;;;;;;;15.2;11.9;;;;;;;-0.33;66.76172;935.539;;;;
2022/03/04 02:30:42;;;;;;;16;11.7;;;;;;;-0.24;66.58691;935.4694;;;;
2022/03/04 02:33:09;;;;;;;15.7;11.8;;;;;;;-0.24;66.33105;935.5601;;;;
2022/03/04 02:35:34;;;;;;;16.8;11.7;;;;;;;-0.36;66.5127;935.5354;;;;
2022/03/04 02:38:01;;;;;;;17.5;12.4;;;;;;;-0.34;66.54883;935.4972;;;;
2022/03/04 02:40:26;;;;;;;16.4;11.8;;;;;;;-0.16;65.89746;935.5303;;;;
2022/03/04 02:42:54;;;;;;;18.5;11.9;;;;;;;-0.31;66.21973;935.5093;;;;
2022/03/04 02:45:19;;;;;;;18.7;12.4;;;;;;;-0.34;66.30273;935.5164;;;;
2022/03/04 02:47:45;;;;;;;17.1;12.1;;;;;;;-0.36;66.24414;935.467;;;;
2022/03/04 02:50:11;;;;;;;16;12.1;;;;;;;-0.14;66.0459;935.4614;;;;
2022/03/04 02:52:36;;;;;;;15.9;12.1;;;;;;;-0.09;65.63086;935.4833;;;;
2022/03/04 02:55:01;;;;;;;18.1;11.5;;;;;;;-0.22;65.42188;935.497;;;;
2022/03/04 02:58:09;;;;;;;15.6;11.4;;;;;;;-0.15;65.48828;935.5222;;;;
2022/03/04 03:00:39;;;;;;;16.4;11.2;;;;;;;-0.47;66.25;935.5103;;;;
2022/03/04 03:03:04;;;;;;;14;11.1;;;;;;;-0.49;66.3584;935.4487;;;;
2022/03/04 03:05:31;;;;;;;15.2;11.8;;;;;;;-0.5;66.15625;935.4794;;;;
2022/03/04 03:07:56;;;;;;;16.8;12;;;;;;;-0.57;66.05566;935.4704;;;;
2022/03/04 03:10:27;;;;;;;15.5;11.4;;;;;;;-0.65;66.22266;935.4844;;;;
2022/03/04 03:12:57;;;;;;;15.2;11.8;;;;;;;-0.71;66.33398;935.5285;;;;
2022/03/04 03:15:22;;;;;;;18.3;12.2;;;;;;;-0.92;66.87891;935.4794;;;;
2022/03/04 03:17:50;;;;;;;20.2;13.1;;;;;;;-1.03;67.55078;935.5406;;;;
2022/03/04 03:20:22;;;;;;;17.1;13.1;;;;;;;-1.16;68.73047;935.4874;;;;
2022/03/04 03:22:53;;;;;;;19.6;13.7;;;;;;;-1.3;70.07422;935.5804;;;;
2022/03/04 03:25:25;;;;;;;18.6;13.6;;;;;;;-1.4;70.66797;935.5178;;;;
2022/03/04 03:27:56;;;;;;;19.4;13;;;;;;;-1.4;71.12305;935.5733;;;;
2022/03/04 03:30:24;;;;;;;17;12.4;;;;;;;-1.4;69.94531;935.5624;;;;
2022/03/04 03:32:50;;;;;;;16.3;12.2;;;;;;;-1.48;69.23242;935.5069;;;;
2022/03/04 03:35:21;;;;;;;16.4;12.2;;;;;;;-1.46;68.69141;935.5916;;;;
2022/03/04 03:37:52;;;;;;;15.8;11.6;;;;;;;-1.63;69.80762;935.4824;;;;
2022/03/04 03:40:17;;;;;;;17.5;12.3;;;;;;;-1.63;70.24023;935.6245;;;;
2022/03/04 03:42:46;;;;;;;17.8;12.3;;;;;;;-1.63;71.41602;935.6195;;;;
2022/03/04 03:45:39;;;;;;;18.3;13.1;;;;;;;-1.56;71.46094;935.6312;;;;
2022/03/04 03:48:08;;;;;;;21.6;13.2;;;;;;;-1.31;70.38184;935.5703;;;;
2022/03/04 03:50:33;;;;;;;22.6;13.5;;;;;;;-1.29;69.83105;935.6166;;;;
2022/03/04 03:53:01;;;;;;;16.7;12.3;;;;;;;-1.43;69.98438;935.6945;;;;
2022/03/04 03:55:27;;;;;;;19;12.2;;;;;;;-1.49;70.39648;935.7103;;;;
2022/03/04 03:57:52;;;;;;;17.5;12.2;;;;;;;-1.61;70.80957;935.7314;;;;
2022/03/04 04:02:35;;;;;;;20.4;12.8;;;;;;;-1.57;70.63965;935.7464;;;;
2022/03/04 04:05:04;;;;;;;18.8;12.4;;;;;;;-1.53;70.36816;935.7458;;;;
2022/03/04 04:07:29;;;;;;;18.6;12.4;;;;;;;-1.47;70.17871;935.613;;;;
2022/03/04 04:09:56;;;;;;;20.4;12.5;;;;;;;-1.39;69.84766;935.6531;;;;
2022/03/04 04:12:22;;;;;;;18.1;12.6;;;;;;;-1.41;69.84375;935.6878;;;;
2022/03/04 04:14:51;;;;;;;17;11.9;;;;;;;-1.38;69.57031;935.7106;;;;
2022/03/04 04:17:19;;;;;;;17.9;12.5;;;;;;;-1.34;69.54492;935.6616;;;;
2022/03/04 04:19:49;;;;;;;18.7;11.6;;;;;;;-1.5;70.15137;935.7341;;;;
2022/03/04 04:22:14;;;;;;;23.1;13.9;;;;;;;-1.69;71.16113;935.736;;;;
2022/03/04 04:24:43;;;;;;;16.6;12.3;;;;;;;-1.76;72.14941;935.7467;;;;
2022/03/04 04:27:08;;;;;;;18.5;12.5;;;;;;;-1.66;71.6875;935.7522;;;;
2022/03/04 04:29:39;;;;;;;23.7;15.1;;;;;;;-1.71;72.03516;935.7796;;;;
2022/03/04 04:32:04;;;;;;;22.9;13.9;;;;;;;-1.73;72.28711;935.7542;;;;
2022/03/04 04:34:29;;;;;;;22.5;14.8;;;;;;;-1.76;72.60254;935.7433;;;;
2022/03/04 04:36:57;;;;;;;17;12.3;;;;;;;-1.75;72.82715;935.7017;;;;
2022/03/04 04:39:23;;;;;;;18.3;12.1;;;;;;;-1.8;73.12988;935.6619;;;;
2022/03/04 04:41:49;;;;;;;19.9;12.3;;;;;;;-1.84;73.43262;935.6262;;;;
2022/03/04 04:44:14;;;;;;;20.4;13;;;;;;;-1.86;73.66113;935.7154;;;;
2022/03/04 04:46:41;;;;;;;18.3;11.7;;;;;;;-1.8;73.31934;935.7134;;;;
2022/03/04 04:49:06;;;;;;;18.3;12.5;;;;;;;-1.74;73.00684;935.7047;;;;
2022/03/04 04:51:34;;;;;;;18.3;12.6;;;;;;;-1.74;72.71777;935.69;;;;
2022/03/04 04:53:59;;;;;;;17.9;12.3;;;;;;;-1.63;72.45996;935.6448;;;;
2022/03/04 04:56:25;;;;;;;19.7;12.2;;;;;;;-1.52;72.14551;935.7353;;;;
2022/03/04 04:58:50;;;;;;;22.4;12.6;;;;;;;-1.6;72.375;935.7307;;;;
2022/03/04 05:01:17;;;;;;;22.1;13.3;;;;;;;-1.67;72.63086;935.6924;;;;
2022/03/04 05:03:43;;;;;;;17.8;13;;;;;;;-1.76;73.19043;935.7933;;;;
2022/03/04 05:06:11;;;;;;;19.3;12.4;;;;;;;-1.75;73.38184;935.7619;;;;
2022/03/04 05:08:36;;;;;;;21.8;12.9;;;;;;;-1.81;73.79297;935.8187;;;;
2022/03/04 05:11:05;;;;;;;21.5;14.1;;;;;;;-1.73;73.23145;935.806;;;;
2022/03/04 05:13:34;;;;;;;21.2;13.3;;;;;;;-1.71;72.87793;935.8395;;;;
2022/03/04 05:15:59;;;;;;;18.8;12.7;;;;;;;-1.59;72.66504;935.8857;;;;
2022/03/04 05:18:24;;;;;;;19.8;12.4;;;;;;;-1.68;72.28418;935.877;;;;
2022/03/04 05:20:55;;;;;;;20.4;13.3;;;;;;;-1.86;73.13086;935.8748;;;;
2022/03/04 05:25:59;;;;;;;30.7;15.1;;;;;;;-1.96;73.37793;935.8772;;;;
2022/03/04 05:28:26;;;;;;;22.8;14.6;;;;;;;-1.97;73.14355;935.9219;;;;
2022/03/04 05:30:51;;;;;;;21;13.6;;;;;;;-1.95;73.04785;935.9113;;;;
2022/03/04 05:33:19;;;;;;;22.1;13.8;;;;;;;-1.9;72.91211;935.8774;;;;
2022/03/04 05:35:44;;;;;;;19.1;13;;;;;;;-1.95;73.33594;935.8764;;;;
2022/03/04 05:38:11;;;;;;;23.5;13.1;;;;;;;-2.16;73.80859;936.0435;;;;
2022/03/04 05:40:36;;;;;;;18.6;13;;;;;;;-2.19;74.30078;936.0059;;;;
2022/03/04 05:43:02;;;;;;;20.3;12.9;;;;;;;-2.08;73.79102;936.0449;;;;
2022/03/04 05:45:28;;;;;;;17.3;12.1;;;;;;;-2;73.33789;936.1055;;;;
2022/03/04 05:47:55;;;;;;;18.9;12.2;;;;;;;-1.92;73.1084;936.1735;;;;
2022/03/04 05:50:20;;;;;;;18;12.6;;;;;;;-1.88;72.69434;936.1749;;;;
2022/03/04 05:52:48;;;;;;;19.5;12.2;;;;;;;-1.87;72.79492;936.1774;;;;
2022/03/04 05:55:13;;;;;;;28.5;12.6;;;;;;;-1.99;73.26172;936.2775;;;;
2022/03/04 05:57:42;;;;;;;20.1;12.3;;;;;;;-2.05;73.76074;936.3363;;;;
2022/03/04 06:00:11;;;;;;;19.8;10.2;;;;;;;-2.1;73.99707;936.3198;;;;
2022/03/04 06:02:36;;;;;;;17.7;10.2;;;;;;;-2.17;73.95215;936.3264;;;;
2022/03/04 06:05:03;;;;;;;19;9.8;;;;;;;-2.13;73.75977;936.3477;;;;
2022/03/04 06:07:33;;;;;;;17.6;9.8;;;;;;;-2.15;73.76563;936.3593;;;;
2022/03/04 06:09:53;;;;;;;17.5;9.9;;;;;;;-2.21;73.87598;936.4272;;;;
2022/03/04 06:12:19;;;;;;;22.1;10.8;;;;;;;-2.13;73.7373;936.3884;;;;
2022/03/04 06:14:45;;;;;;;17.7;9.9;;;;;;;-1.97;73.03223;936.4252;;;;
2022/03/04 06:17:14;;;;;;;19.5;9.7;;;;;;;-1.73;72.08594;936.4401;;;;
2022/03/04 06:19:41;;;;;;;17.8;10;;;;;;;-1.73;71.98926;936.5178;;;;
2022/03/04 06:22:04;;;;;;;17.7;11.4;;;;;;;-1.49;70.72949;936.524;;;;
2022/03/04 06:25:32;;;;;;;20.8;12.1;;;;;;;-1.15;71.78516;936.5578;;;;
2022/03/04 06:28:01;;;;;;;17.2;10.6;;;;;;;-0.27;67.12793;936.5538;;;;
2022/03/04 06:30:26;;;;;;;18;9.5;;;;;;;0.3;64.7207;936.6128;;;;
2022/03/04 06:32:51;;;;;;;16.1;9.2;;;;;;;1.3;61.66699;936.5683;;;;
2022/03/04 06:35:16;;;;;;;21.6;10.4;;;;;;;1.32;60.63184;936.5302;;;;
2022/03/04 06:37:47;;;;;;;24.2;11.9;;;;;;;1.53;60.2373;936.5122;;;;
2022/03/04 06:40:17;;;;;;;18.8;11.2;;;;;;;2.86;57.01758;936.4872;;;;
2022/03/04 06:42:49;;;;;;;16.5;9;;;;;;;3.21;54.0332;936.5396;;;;
2022/03/04 06:45:13;;;;;;;16.4;8.9;;;;;;;3.84;52.87695;936.5187;;;;
2022/03/04 06:47:40;;;;;;;15.7;8.7;;;;;;;3.88;51.88184;936.5664;;;;
2022/03/04 06:50:05;;;;;;;18.3;10.3;;;;;;;3.69;52.66699;936.5033;;;;
2022/03/04 06:52:34;;;;;;;15.1;9.3;;;;;;;3.34;53.80371;936.5332;;;;
2022/03/04 06:54:59;;;;;;;18;9.4;;;;;;;2.99;53.65625;936.5889;;;;
2022/03/04 06:57:25;;;;;;;19.5;9.5;;;;;;;2.99;54.35352;936.6245;;;;
2022/03/04 06:59:50;;;;;;;16.2;9.6;;;;;;;3.83;53.62891;936.6492;;;;
2022/03/04 07:02:19;;;;;;;16.4;9.9;;;;;;;4.3;53.25977;936.7216;;;;
2022/03/04 07:04:44;;;;;;;16.8;10.1;;;;;;;4.57;52.32617;936.6583;;;;
2022/03/04 07:07:11;;;;;;;18.8;9.8;;;;;;;4.79;50.67383;936.7208;;;;
2022/03/04 07:09:37;;;;;;;19;9.7;;;;;;;4.61;51.51953;936.7196;;;;
2022/03/04 07:12:05;;;;;;;19.4;10.2;;;;;;;5.11;49.97852;936.7696;;;;
2022/03/04 07:14:30;;;;;;;21.4;10.1;;;;;;;4.76;49.53223;936.7434;;;;
2022/03/04 07:17:03;;;;;;;18.5;9.9;;;;;;;5.21;50.02441;936.7783;;;;
2022/03/04 07:19:33;;;;;;;19.6;10.5;;;;;;;5.35;49.20605;936.7676;;;;
2022/03/04 07:21:58;;;;;;;22.6;11.1;;;;;;;6.05;47.12793;936.7756;;;;
2022/03/04 07:24:29;;;;;;;20.8;10.7;;;;;;;6.29;46.77051;936.7538;;;;
2022/03/04 07:26:54;;;;;;;17.8;10.5;;;;;;;6.31;45.75488;936.7045;;;;
2022/03/04 07:29:20;;;;;;;19.1;10.3;;;;;;;7.14;44.05371;936.7247;;;;
2022/03/04 07:31:51;;;;;;;19.4;10.4;;;;;;;7.46;42.8623;936.7797;;;;
2022/03/04 07:34:15;;;;;;;19.1;10.8;;;;;;;8.02;41.59082;936.7706;;;;
2022/03/04 07:36:42;;;;;;;17;10.3;;;;;;;8.59;40.16797;936.8;;;;
2022/03/04 07:39:07;;;;;;;14.9;9.4;;;;;;;8.79;39.32227;936.7872;;;;
2022/03/04 07:41:48;;;;;;;17.1;10.1;;;;;;;8.72;40.04492;936.8735;;;;
2022/03/04 07:44:06;;;;;;;16.9;9.8;;;;;;;8.97;39.7832;936.8716;;;;
2022/03/04 07:46:31;;;;;;;13.9;9.1;;;;;;;8.22;40.83789;936.8605;;;;
2022/03/04 07:48:59;;;;;;;18.6;10.1;;;;;;;8.86;39.16992;936.8297;;;;
2022/03/04 07:53:51;;;;;;;20.7;10.6;;;;;;;8.36;40.85059;936.8597;;;;
2022/03/04 07:56:16;;;;;;;22.7;11;;;;;;;9.37;38.7373;936.8477;;;;
2022/03/04 07:58:42;;;;;;;21;10.8;;;;;;;10.03;37.0752;936.8245;;;;
2022/03/04 08:01:08;;;;;;;17.7;9.6;;;;;;;10.93;35.68945;936.7991;;;;
2022/03/04 08:03:38;;;;;;;14;9;;;;;;;11.84;34.05859;936.7892;;;;
2022/03/04 08:06:05;;;;;;;13.2;9.3;;;;;;;11.49;32.9668;936.7825;;;;
2022/03/04 08:08:30;;;;;;;13.6;9.7;;;;;;;12.06;32.10449;936.7043;;;;
2022/03/04 08:10:58;;;;;;;14.6;9.9;;;;;;;12.12;32.41797;936.6358;;;;
2022/03/04 08:13:23;;;;;;;12.6;9.4;;;;;;;12.44;30.92871;936.7203;;;;
2022/03/04 08:15:48;;;;;;;14.1;9.8;;;;;;;12.7;31.38281;936.7388;;;;
2022/03/04 08:18:14;;;;;;;13.3;9.5;;;;;;;14.12;29.51758;936.7307;;;;
2022/03/04 08:20:39;;;;;;;10.8;9;;;;;;;13.25;29.64258;936.7955;;;;
2022/03/04 08:23:09;;;;;;;13.9;9.7;;;;;;;12.81;30.47266;936.8017;;;;
2022/03/04 08:25:39;;;;;;;13.1;9.7;;;;;;;13.99;29.48535;936.7416;;;;
2022/03/04 08:28:09;;;;;;;10.4;8.9;;;;;;;15.16;27.9834;936.6937;;;;
2022/03/04 08:30:33;;;;;;;13.9;10.5;;;;;;;17.07;24.66309;936.6705;;;;
2022/03/04 08:32:58;;;;;;;18.3;10.6;;;;;;;16.9;25.25684;936.6902;;;;
2022/03/04 08:35:26;;;;;;;16.3;11.7;;;;;;;17.62;24.09082;936.6809;;;;
2022/03/04 08:37:52;;;;;;;17.9;11.4;;;;;;;17.52;23.60938;936.7037;;;;
2022/03/04 08:40:20;;;;;;;15.8;10.7;;;;;;;18.26;23.46289;936.713;;;;
2022/03/04 08:42:45;;;;;;;15.9;10.7;;;;;;;18.03;23.47461;936.7369;;;;
2022/03/04 08:45:15;;;;;;;15.8;10.6;;;;;;;18.69;22.8584;936.7028;;;;
2022/03/04 08:47:43;;;;;;;15.7;10.8;;;;;;;17.4;23.60352;936.7403;;;;
2022/03/04 08:50:08;;;;;;;16.8;11.4;;;;;;;15.96;25.2832;936.736;;;;
2022/03/04 08:52:34;;;;;;;14.4;10.7;;;;;;;16.45;24.91699;936.7506;;;;
2022/03/04 08:54:59;;;;;;;15.7;11.2;;;;;;;15.83;25.4834;936.7522;;;;
2022/03/04 08:57:25;;;;;;;15.6;11.1;;;;;;;15.55;26.40234;936.7725;;;;
2022/03/04 08:59:50;;;;;;;16.3;10.9;;;;;;;16.36;26.25586;936.693;;;;
2022/03/04 09:02:18;;;;;;;16.3;11;;;;;;;15.45;27.33203;936.7327;;;;
2022/03/04 09:04:44;;;;;;;17.6;11.1;;;;;;;14.83;27.41992;936.716;;;;
2022/03/04 09:07:12;;;;;;;17.3;10.6;;;;;;;14.67;27.58398;936.6979;;;;
2022/03/04 09:09:38;;;;;;;15.7;10.5;;;;;;;14.67;27.24902;936.6273;;;;
2022/03/04 09:12:04;;;;;;;17.3;11.9;;;;;;;14.87;27.18066;936.7004;;;;
2022/03/04 09:14:29;;;;;;;16.7;11.5;;;;;;;16.01;25.7832;936.675;;;;
2022/03/04 09:16:57;;;;;;;14.7;10.7;;;;;;;16.37;25.6543;936.668;;;;
2022/03/04 09:19:24;;;;;;;16.8;10.7;;;;;;;15.28;27.02148;936.6534;;;;
2022/03/04 09:21:49;;;;;;;16;11.1;;;;;;;14.55;28.07129;936.6072;;;;
2022/03/04 09:24:15;;;;;;;18.8;11.4;;;;;;;14.97;27.20996;936.5798;;;;
2022/03/04 09:26:46;;;;;;;17.3;11.5;;;;;;;14.41;27.78516;936.6255;;;;
2022/03/04 09:29:13;;;;;;;16.4;11.9;;;;;;;15.4;27.45605;936.5461;;;;
2022/03/04 09:31:38;;;;;;;16.8;11.8;;;;;;;15.06;27.28516;936.4678;;;;
2022/03/04 09:34:09;;;;;;;15.4;10.8;;;;;;;14.73;27.28711;936.5315;;;;
2022/03/04 09:36:33;;;;;;;18.6;11.8;;;;;;;14.49;28.07813;936.5085;;;;
2022/03/04 09:39:01;;;;;;;15.3;11.5;;;;;;;14.38;28.42871;936.4888;;;;
2022/03/04 09:41:26;;;;;;;16.9;10.7;;;;;;;14.9;27.32129;936.3937;;;;
2022/03/04 09:43:53;;;;;;;16.8;11.5;;;;;;;16.04;25.77344;936.4364;;;;
2022/03/04 09:46:19;;;;;;;14.9;11.3;;;;;;;16.47;26.09961;936.4231;;;;
2022/03/04 09:48:44;;;;;;;17.9;11.3;;;;;;;16.21;25.58691;936.3799;;;;
2022/03/04 09:51:09;;;;;;;17.4;11.4;;;;;;;16.24;25.62305;936.399;;;;
2022/03/04 09:53:34;;;;;;;14.9;10.5;;;;;;;15.73;25.98633;936.4264;;;;
2022/03/04 09:56:03;;;;;;;15.2;10.8;;;;;;;15.67;25.85547;936.4169;;;;
2022/03/04 09:58:28;;;;;;;15.5;10.2;;;;;;;14.42;26.92188;936.4183;;;;
2022/03/04 10:00:56;;;;;;;14.3;10.8;;;;;;;14.76;26.5625;936.3356;;;;
2022/03/04 10:03:22;;;;;;;16.3;10.6;;;;;;;14.15;27.83887;936.4294;;;;
2022/03/04 10:05:47;;;;;;;14;10.6;;;;;;;14.5;26.70801;936.4083;;;;
2022/03/04 10:08:15;;;;;;;14.5;11.2;;;;;;;14.18;27.77051;936.3755;;;;
2022/03/04 10:10:40;;;;;;;15.3;11;;;;;;;13.53;28.07422;936.3979;;;;
2022/03/04 10:13:05;;;;;;;14;10.6;;;;;;;13.79;27.67773;936.2958;;;;
2022/03/04 10:15:40;;;;;;;14.2;10.2;;;;;;;14.08;26.98242;936.3337;;;;
2022/03/04 10:18:06;;;;;;;14;10.7;;;;;;;14.17;26.79199;936.3027;;;;
2022/03/04 10:20:34;;;;;;;16.7;11.2;;;;;;;14.63;26.41699;936.2286;;;;
2022/03/04 10:23:04;;;;;;;15.8;11.2;;;;;;;14.74;26.48145;936.2364;;;;
2022/03/04 10:26:26;;;;;;;16;11.2;;;;;;;15.02;26.37109;936.2668;;;;
2022/03/04 10:28:56;;;;;;;14.4;10.5;;;;;;;14.87;26.80078;936.1151;;;;
2022/03/04 10:31:20;;;;;;;15.5;11.7;;;;;;;13.99;28.30078;936.2092;;;;
2022/03/04 10:33:45;;;;;;;16.5;11.7;;;;;;;13.16;30.11816;936.2475;;;;
2022/03/04 10:36:15;;;;;;;14.8;11.3;;;;;;;12.9;29.59473;936.3;;;;
2022/03/04 10:38:40;;;;;;;14.9;11.1;;;;;;;12.72;30.13477;936.2178;;;;
2022/03/04 10:41:06;;;;;;;15.6;11.4;;;;;;;13.33;29.61328;936.2202;;;;
2022/03/04 10:43:32;;;;;;;14.8;11.1;;;;;;;14.05;27.58984;936.166;;;;
2022/03/04 10:45:57;;;;;;;15.7;11.6;;;;;;;14.07;27.1084;935.9911;;;;
2022/03/04 10:48:25;;;;;;;15.1;11.3;;;;;;;15.02;26.99414;936.0536;;;;
2022/03/04 10:50:50;;;;;;;14.1;11;;;;;;;15.15;26.30957;936.081;;;;
2022/03/04 10:53:16;;;;;;;13.8;10.8;;;;;;;14.89;26.40918;936.0475;;;;
2022/03/04 10:55:44;;;;;;;15.8;11.3;;;;;;;14.21;27.24219;936.063;;;;
2022/03/04 10:58:06;;;;;;;15.2;11.5;;;;;;;12.89;29.9043;935.99;;;;
2022/03/04 11:00:36;;;;;;;19.2;11.7;;;;;;;12.41;30.51367;935.9814;;;;
2022/03/04 11:03:05;;;;;;;16;12.5;;;;;;;13;30.41699;936.0167;;;;
2022/03/04 11:07:57;;;;;;;17.8;12.6;;;;;;;12.72;30.73145;936.0421;;;;
2022/03/04 11:10:53;;;;;;;18.6;13.2;;;;;;;13.65;29.69238;935.9247;;;;
2022/03/04 11:13:19;;;;;;;18.6;13.6;;;;;;;12.9;31.30566;935.978;;;;
2022/03/04 11:15:53;;;;;;;18.7;13.6;;;;;;;13.3;31.0127;935.9724;;;;
2022/03/04 11:18:18;;;;;;;18.1;13.3;;;;;;;14.03;28.64746;935.885;;;;
2022/03/04 11:20:44;;;;;;;18.3;13.5;;;;;;;13.79;29.94336;935.9207;;;;
2022/03/04 11:25:44;;;;;;;18.2;12.9;;;;;;;13.97;29.875;935.8387;;;;
2022/03/04 11:28:09;;;;;;;18.5;13.2;;;;;;;14.77;28.77734;935.8025;;;;
2022/03/04 11:30:34;;;;;;;19.9;13.9;;;;;;;15.22;28.46094;935.8752;;;;
2022/03/04 11:33:03;;;;;;;17.3;13.5;;;;;;;14.9;28.58887;935.8142;;;;
2022/03/04 11:35:36;;;;;;;17.9;12.6;;;;;;;15.63;27.2627;935.7953;;;;
2022/03/04 11:38:02;;;;;;;16.2;12.4;;;;;;;15.76;26.56543;935.8633;;;;
2022/03/04 11:40:38;;;;;;;15.1;12.7;;;;;;;14.59;29.5498;935.675;;;;
2022/03/04 11:42:54;;;;;;;17.5;12.6;;;;;;;14.77;29.26172;935.7992;;;;
2022/03/04 11:45:19;;;;;;;15.8;12.5;;;;;;;14.59;28.98438;935.659;;;;
2022/03/04 11:47:44;;;;;;;16.8;12.8;;;;;;;15.06;27.63184;935.7285;;;;
2022/03/04 11:50:13;;;;;;;16.9;12.7;;;;;;;16.37;26.07031;935.7011;;;;
2022/03/04 11:52:38;;;;;;;16.4;12.5;;;;;;;15.42;27.97754;935.7349;;;;
2022/03/04 11:55:30;;;;;;;17.6;13;;;;;;;14.08;29.36426;935.6884;;;;
2022/03/04 11:57:52;;;;;;;17.2;13.1;;;;;;;14.05;29.13184;935.6599;;;;
2022/03/04 12:00:21;;;;;;;21.9;13.7;;;;;;;13.71;30.01855;935.5811;;;;
2022/03/04 12:02:46;;;;;;;20.4;13.8;;;;;;;14.62;28.14453;935.6214;;;;
2022/03/04 12:05:13;;;;;;;17.4;13.3;;;;;;;14.98;27.6377;935.5447;;;;
2022/03/04 12:07:39;;;;;;;15.9;12.2;;;;;;;15.73;26.08984;935.6164;;;;
2022/03/04 12:10:03;;;;;;;17.5;13.2;;;;;;;16.78;25.42285;935.5172;;;;
2022/03/04 12:12:28;;;;;;;17.2;12.9;;;;;;;16.06;26.30664;935.5197;;;;
2022/03/04 12:14:56;;;;;;;15.9;12.8;;;;;;;15.77;26.50977;935.5628;;;;
2022/03/04 12:17:24;;;;;;;15.8;12.9;;;;;;;15.92;25.98633;935.4444;;;;
2022/03/04 12:19:49;;;;;;;18.8;13.5;;;;;;;16.11;26.26367;935.4922;;;;
2022/03/04 12:22:14;;;;;;;16.8;13.2;;;;;;;15.85;25.78516;935.5033;;;;
2022/03/04 12:24:43;;;;;;;17.3;13.5;;;;;;;16.55;25.25879;935.4073;;;;
2022/03/04 12:29:34;;;;;;;18.4;13.7;;;;;;;16.47;25.8916;935.3694;;;;
2022/03/04 12:32:03;;;;;;;18.1;13.3;;;;;;;16.49;24.9668;935.3892;;;;
2022/03/04 12:35:19;;;;;;;16.8;13.1;;;;;;;17;24.49707;935.3707;;;;
2022/03/04 12:38:47;;;;;;;17.8;14.2;;;;;;;17.61;23.41797;935.3192;;;;
2022/03/04 12:41:15;;;;;;;19.1;13.6;;;;;;;17.28;23.36523;935.3801;;;;
2022/03/04 12:43:37;;;;;;;21.4;14.2;;;;;;;15.44;26.09668;935.2468;;;;
2022/03/04 12:46:02;;;;;;;19.6;14.3;;;;;;;15.58;25.97656;935.3226;;;;
2022/03/04 12:48:28;;;;;;;17.5;13.3;;;;;;;15.92;25.89355;935.3448;;;;
2022/03/04 12:50:53;;;;;;;19.9;14;;;;;;;16.69;25.32617;935.2742;;;;
2022/03/04 12:53:19;;;;;;;18.4;13.6;;;;;;;16.23;25.61133;935.2874;;;;
2022/03/04 12:55:46;;;;;;;17.8;13.4;;;;;;;16.66;24.31641;935.2505;;;;
2022/03/04 12:58:11;;;;;;;17.9;13.2;;;;;;;15.6;25.35449;935.3114;;;;
2022/03/04 13:00:36;;;;;;;18.6;14;;;;;;;14.53;26.87109;935.2919;;;;
2022/03/04 13:03:01;;;;;;;19.8;14.3;;;;;;;14.27;27.36328;935.2081;;;;
2022/03/04 13:05:28;;;;;;;19.6;13.9;;;;;;;14.48;27.0293;935.2475;;;;
2022/03/04 13:07:55;;;;;;;20.9;15.2;;;;;;;13.19;28.33984;935.1716;;;;
2022/03/04 13:10:19;;;;;;;20.4;14.9;;;;;;;14.03;27.54297;935.222;;;;
2022/03/04 13:12:47;;;;;;;20.6;14.2;;;;;;;14.68;27.56152;935.1926;;;;
2022/03/04 13:15:10;;;;;;;19.3;14.8;;;;;;;14.35;27.54004;935.1962;;;;
2022/03/04 13:17:35;;;;;;;18.7;14.1;;;;;;;13.8;27.83887;935.1691;;;;
2022/03/04 13:20:00;;;;;;;21.5;15;;;;;;;13.65;28.65723;935.1478;;;;
2022/03/04 13:22:30;;;;;;;22.5;15.3;;;;;;;13.54;28.10938;935.1851;;;;
2022/03/04 13:24:55;;;;;;;18.2;13.6;;;;;;;13.7;27.15332;935.1434;;;;
2022/03/04 13:27:24;;;;;;;18.9;13.6;;;;;;;13.32;27.50879;935.1639;;;;
2022/03/04 13:29:49;;;;;;;20.7;13.7;;;;;;;14.31;26.38574;935.1509;;;;
2022/03/04 13:32:17;;;;;;;20.2;13.7;;;;;;;13.62;27.36719;935.1248;;;;
2022/03/04 13:34:42;;;;;;;17.6;13.1;;;;;;;12.67;28.49023;935.1898;;;;
2022/03/04 13:37:10;;;;;;;18.2;12.9;;;;;;;13.46;27.3916;935.1584;;;;
2022/03/04 13:39:35;;;;;;;19.4;12.7;;;;;;;13.89;25.91211;935.1909;;;;
2022/03/04 13:42:06;;;;;;;17.5;12;;;;;;;12.8;26.06445;935.183;;;;
2022/03/04 13:44:36;;;;;;;17.3;12.7;;;;;;;12.5;27.91699;935.1669;;;;
2022/03/04 13:47:04;;;;;;;16.5;12;;;;;;;13.69;25.79688;935.1298;;;;
2022/03/04 13:49:29;;;;;;;17.5;12.2;;;;;;;13.7;25.2793;935.1042;;;;
2022/03/04 13:51:55;;;;;;;17.6;12;;;;;;;13.27;26.74707;935.0394;;;;
2022/03/04 13:54:20;;;;;;;15.1;11;;;;;;;13.32;24.80957;935.1534;;;;
2022/03/04 13:56:45;;;;;;;16.6;11.7;;;;;;;14.18;24.13281;935.1006;;;;
2022/03/04 13:59:11;;;;;;;15.1;11.2;;;;;;;15.45;23.1748;935.1728;;;;
2022/03/04 14:01:36;;;;;;;13.5;10.6;;;;;;;13.27;24.21973;935.153;;;;
2022/03/04 14:04:05;;;;;;;14.8;11.1;;;;;;;10.93;26.87891;935.2227;;;;
2022/03/04 14:06:29;;;;;;;14.4;11.1;;;;;;;9.24;30.41602;935.3153;;;;
2022/03/04 14:08:55;;;;;;;14.6;10.7;;;;;;;8.63;30.93066;935.2914;;;;
2022/03/04 14:11:20;;;;;;;15.4;10.6;;;;;;;9.06;30.35742;935.3116;;;;
2022/03/04 14:13:49;;;;;;;14.6;10.3;;;;;;;9.23;29.83496;935.2771;;;;
2022/03/04 14:16:28;;;;;;;14.6;10.8;;;;;;;9;30.02441;935.3123;;;;
2022/03/04 14:18:51;;;;;;;15.3;10.8;;;;;;;9.59;29.32422;935.317;;;;
2022/03/04 14:21:18;;;;;;;18.7;11.3;;;;;;;8.67;30.25098;935.2537;;;;
2022/03/04 14:23:43;;;;;;;14.9;9.9;;;;;;;8.98;30.91016;935.3805;;;;
2022/03/04 14:26:11;;;;;;;13.3;9.8;;;;;;;9.98;30.25098;935.3476;;;;
2022/03/04 14:28:36;;;;;;;15;10.4;;;;;;;10.92;27.73535;935.4058;;;;